sensor_id;sensor_type;location;lat;lon;timestamp;pressure;altitude;pressure_sealevel;temperature;humidity
68107;BME280;54892;47.488;19.026;2023-09-12T00:00:31;99761.50;;;20.60;63.15
68107;BME280;54892;47.488;19.026;2023-09-12T00:03:34;99769.62;;;20.51;63.16
68107;BME280;54892;47.488;19.026;2023-09-12T00:06:37;99770.28;;;20.48;63.18
68107;BME280;54892;47.488;19.026;2023-09-12T00:09:40;99773.16;;;20.43;63.25
68107;BME280;54892;47.488;19.026;2023-09-12T00:12:44;99756.75;;;20.44;63.21
68107;BME280;54892;47.488;19.026;2023-09-12T00:15:48;99768.56;;;20.43;63.43
68107;BME280;54892;47.488;19.026;2023-09-12T00:18:51;99762.44;;;20.43;63.64
68107;BME280;54892;47.488;19.026;2023-09-12T00:21:54;99774.59;;;20.40;63.49
68107;BME280;54892;47.488;19.026;2023-09-12T00:24:57;99773.69;;;20.36;63.48
68107;BME280;54892;47.488;19.026;2023-09-12T00:28:00;99774.22;;;20.29;63.64
68107;BME280;54892;47.488;19.026;2023-09-12T00:31:04;99759.84;;;20.34;63.37
68107;BME280;54892;47.488;19.026;2023-09-12T00:34:07;99770.75;;;20.29;63.72
68107;BME280;54892;47.488;19.026;2023-09-12T00:37:10;99771.38;;;20.26;63.95
68107;BME280;54892;47.488;19.026;2023-09-12T00:40:14;99767.94;;;20.25;63.99
68107;BME280;54892;47.488;19.026;2023-09-12T00:43:17;99770.28;;;20.27;64.03
68107;BME280;54892;47.488;19.026;2023-09-12T00:46:22;99763.34;;;20.26;64.44
68107;BME280;54892;47.488;19.026;2023-09-12T00:49:25;99773.41;;;20.29;64.45
68107;BME280;54892;47.488;19.026;2023-09-12T00:52:29;99768.91;;;20.20;64.39
68107;BME280;54892;47.488;19.026;2023-09-12T00:55:32;99770.31;;;20.18;64.26
68107;BME280;54892;47.488;19.026;2023-09-12T00:58:37;99771.13;;;20.18;64.37
68107;BME280;54892;47.488;19.026;2023-09-12T01:01:41;99769.22;;;20.19;64.40
68107;BME280;54892;47.488;19.026;2023-09-12T01:04:45;99767.00;;;20.21;64.18
68107;BME280;54892;47.488;19.026;2023-09-12T01:07:49;99763.88;;;20.19;64.38
68107;BME280;54892;47.488;19.026;2023-09-12T01:10:51;99765.66;;;20.15;64.64
68107;BME280;54892;47.488;19.026;2023-09-12T01:13:55;99756.56;;;20.07;64.86
68107;BME280;54892;47.488;19.026;2023-09-12T01:16:59;99766.47;;;20.06;65.34
68107;BME280;54892;47.488;19.026;2023-09-12T01:20:04;99766.47;;;20.06;65.21
68107;BME280;54892;47.488;19.026;2023-09-12T01:26:35;99764.69;;;19.89;65.42
68107;BME280;54892;47.488;19.026;2023-09-12T01:29:45;99760.75;;;19.87;65.59
68107;BME280;54892;47.488;19.026;2023-09-12T01:32:48;99762.66;;;19.77;65.96
68107;BME280;54892;47.488;19.026;2023-09-12T01:35:51;99758.41;;;19.76;66.33
68107;BME280;54892;47.488;19.026;2023-09-12T01:38:54;99759.34;;;19.81;66.80
68107;BME280;54892;47.488;19.026;2023-09-12T01:41:57;99750.56;;;19.71;66.94
68107;BME280;54892;47.488;19.026;2023-09-12T01:45:03;99756.87;;;19.67;67.00
68107;BME280;54892;47.488;19.026;2023-09-12T01:48:07;99753.56;;;19.70;66.83
68107;BME280;54892;47.488;19.026;2023-09-12T01:51:11;99750.56;;;19.71;67.15
68107;BME280;54892;47.488;19.026;2023-09-12T01:54:15;99753.09;;;19.68;66.91
68107;BME280;54892;47.488;19.026;2023-09-12T02:01:04;99758.16;;;19.69;67.39
68107;BME280;54892;47.488;19.026;2023-09-12T02:04:07;99765.37;;;19.69;67.16
68107;BME280;54892;47.488;19.026;2023-09-12T02:07:11;99763.34;;;19.66;66.80
68107;BME280;54892;47.488;19.026;2023-09-12T02:10:14;99760.19;;;19.63;67.27
68107;BME280;54892;47.488;19.026;2023-09-12T02:13:17;99766.66;;;19.62;67.02
68107;BME280;54892;47.488;19.026;2023-09-12T02:16:22;99774.88;;;19.57;67.17
68107;BME280;54892;47.488;19.026;2023-09-12T02:19:25;99768.75;;;19.48;67.34
68107;BME280;54892;47.488;19.026;2023-09-12T02:22:28;99773.47;;;19.51;67.37
68107;BME280;54892;47.488;19.026;2023-09-12T02:25:31;99777.91;;;19.47;67.32
68107;BME280;54892;47.488;19.026;2023-09-12T02:28:35;99774.19;;;19.30;67.81
68107;BME280;54892;47.488;19.026;2023-09-12T02:31:39;99770.09;;;19.24;68.10
68107;BME280;54892;47.488;19.026;2023-09-12T02:34:42;99766.31;;;19.25;68.29
68107;BME280;54892;47.488;19.026;2023-09-12T02:37:45;99772.31;;;19.22;68.30
68107;BME280;54892;47.488;19.026;2023-09-12T02:40:48;99769.62;;;19.22;68.42
68107;BME280;54892;47.488;19.026;2023-09-12T02:43:51;99776.09;;;19.21;68.65
68107;BME280;54892;47.488;19.026;2023-09-12T02:46:55;99773.13;;;19.23;68.80
68107;BME280;54892;47.488;19.026;2023-09-12T02:49:58;99768.22;;;19.16;68.85
68107;BME280;54892;47.488;19.026;2023-09-12T02:53:01;99773.56;;;19.16;69.08
68107;BME280;54892;47.488;19.026;2023-09-12T02:56:04;99766.50;;;19.20;69.11
68107;BME280;54892;47.488;19.026;2023-09-12T02:59:07;99765.53;;;19.16;69.41
68107;BME280;54892;47.488;19.026;2023-09-12T03:02:11;99766.97;;;19.22;68.87
68107;BME280;54892;47.488;19.026;2023-09-12T03:05:14;99766.78;;;19.27;68.31
68107;BME280;54892;47.488;19.026;2023-09-12T03:08:17;99770.75;;;19.21;68.60
68107;BME280;54892;47.488;19.026;2023-09-12T03:11:20;99762.09;;;19.15;68.92
68107;BME280;54892;47.488;19.026;2023-09-12T03:14:23;99764.00;;;19.15;69.19
68107;BME280;54892;47.488;19.026;2023-09-12T03:17:29;99764.00;;;19.15;69.06
68107;BME280;54892;47.488;19.026;2023-09-12T03:20:32;99766.03;;;19.09;69.04
68107;BME280;54892;47.488;19.026;2023-09-12T03:23:35;99770.63;;;19.09;68.77
68107;BME280;54892;47.488;19.026;2023-09-12T03:26:38;99768.09;;;19.04;68.77
68107;BME280;54892;47.488;19.026;2023-09-12T03:29:41;99773.44;;;18.95;68.90
68107;BME280;54892;47.488;19.026;2023-09-12T03:32:45;99777.06;;;18.90;68.99
68107;BME280;54892;47.488;19.026;2023-09-12T03:35:48;99783.34;;;18.77;69.49
68107;BME280;54892;47.488;19.026;2023-09-12T03:38:52;99786.03;;;18.85;69.50
68107;BME280;54892;47.488;19.026;2023-09-12T03:41:55;99783.22;;;18.82;69.43
68107;BME280;54892;47.488;19.026;2023-09-12T03:44:58;99785.72;;;18.78;69.19
68107;BME280;54892;47.488;19.026;2023-09-12T03:48:02;99782.13;;;18.74;69.56
68107;BME280;54892;47.488;19.026;2023-09-12T03:51:05;99779.13;;;18.67;69.77
68107;BME280;54892;47.488;19.026;2023-09-12T03:54:08;99778.16;;;18.71;69.76
68107;BME280;54892;47.488;19.026;2023-09-12T03:57:12;99782.25;;;18.69;69.79
68107;BME280;54892;47.488;19.026;2023-09-12T04:00:15;99775.97;;;18.74;69.76
68107;BME280;54892;47.488;19.026;2023-09-12T04:03:19;99783.84;;;18.79;70.18
68107;BME280;54892;47.488;19.026;2023-09-12T04:06:22;99779.72;;;18.81;69.75
68107;BME280;54892;47.488;19.026;2023-09-12T04:09:25;99785.88;;;18.82;69.81
68107;BME280;54892;47.488;19.026;2023-09-12T04:12:29;99779.91;;;18.76;69.87
68107;BME280;54892;47.488;19.026;2023-09-12T04:15:33;99785.09;;;18.64;70.02
68107;BME280;54892;47.488;19.026;2023-09-12T04:18:37;99784.31;;;18.63;70.07
68107;BME280;54892;47.488;19.026;2023-09-12T04:21:40;99789.81;;;18.58;70.48
68107;BME280;54892;47.488;19.026;2023-09-12T04:24:42;99784.31;;;18.63;70.72
68107;BME280;54892;47.488;19.026;2023-09-12T04:27:45;99791.84;;;18.70;70.87
68107;BME280;54892;47.488;19.026;2023-09-12T04:30:48;99788.22;;;18.75;70.71
68107;BME280;54892;47.488;19.026;2023-09-12T04:33:53;99789.66;;;18.81;70.22
68107;BME280;54892;47.488;19.026;2023-09-12T04:36:56;99787.47;;;18.83;70.29
68107;BME280;54892;47.488;19.026;2023-09-12T04:39:59;99788.72;;;18.94;70.04
68107;BME280;54892;47.488;19.026;2023-09-12T04:43:02;99794.53;;;19.05;68.74
68107;BME280;54892;47.488;19.026;2023-09-12T04:46:05;99789.78;;;19.20;67.93
68107;BME280;54892;47.488;19.026;2023-09-12T04:49:09;99801.59;;;19.27;67.83
68107;BME280;54892;47.488;19.026;2023-09-12T04:52:13;99811.31;;;19.32;67.93
68107;BME280;54892;47.488;19.026;2023-09-12T04:55:16;99800.12;;;19.39;67.60
68107;BME280;54892;47.488;19.026;2023-09-12T04:58:19;99806.44;;;19.43;67.62
68107;BME280;54892;47.488;19.026;2023-09-12T05:01:22;99809.84;;;19.52;67.00
68107;BME280;54892;47.488;19.026;2023-09-12T05:04:28;99813.00;;;19.54;66.67
68107;BME280;54892;47.488;19.026;2023-09-12T05:07:31;99818.19;;;19.59;66.33
68107;BME280;54892;47.488;19.026;2023-09-12T05:10:35;99812.38;;;19.48;67.31
68107;BME280;54892;47.488;19.026;2023-09-12T05:13:38;99820.28;;;19.45;67.18
68107;BME280;54892;47.488;19.026;2023-09-12T05:16:41;99818.97;;;19.51;67.19
68107;BME280;54892;47.488;19.026;2023-09-12T05:19:45;99818.50;;;19.58;66.78
68107;BME280;54892;47.488;19.026;2023-09-12T05:22:47;99815.81;;;19.58;67.25
68107;BME280;54892;47.488;19.026;2023-09-12T05:25:50;99813.62;;;19.51;68.22
68107;BME280;54892;47.488;19.026;2023-09-12T05:28:53;99814.41;;;19.60;67.41
68107;BME280;54892;47.488;19.026;2023-09-12T05:31:57;99815.47;;;19.68;66.94
68107;BME280;54892;47.488;19.026;2023-09-12T05:35:01;99817.19;;;19.73;66.87
68107;BME280;54892;47.488;19.026;2023-09-12T05:38:11;99825.81;;;19.78;66.88
68107;BME280;54892;47.488;19.026;2023-09-12T05:41:14;99821.53;;;19.95;66.23
68107;BME280;54892;47.488;19.026;2023-09-12T05:44:17;99833.41;;;20.15;65.45
68107;BME280;54892;47.488;19.026;2023-09-12T05:47:20;99839.13;;;20.35;64.65
68107;BME280;54892;47.488;19.026;2023-09-12T05:50:25;99831.50;;;20.46;63.36
68107;BME280;54892;47.488;19.026;2023-09-12T05:53:28;99839.50;;;20.54;63.23
68107;BME280;54892;47.488;19.026;2023-09-12T05:56:32;99840.72;;;20.57;62.05
68107;BME280;54892;47.488;19.026;2023-09-12T06:02:38;99845.50;;;20.73;61.84
68107;BME280;54892;47.488;19.026;2023-09-12T06:05:42;99840.09;;;20.81;61.48
68107;BME280;54892;47.488;19.026;2023-09-12T06:08:45;99839.50;;;20.97;60.67
68107;BME280;54892;47.488;19.026;2023-09-12T06:11:49;99846.44;;;20.98;60.85
68107;BME280;54892;47.488;19.026;2023-09-12T06:14:52;99840.53;;;21.05;60.82
68107;BME280;54892;47.488;19.026;2023-09-12T06:17:57;99853.34;;;21.20;60.36
68107;BME280;54892;47.488;19.026;2023-09-12T06:21:01;99843.19;;;21.38;60.08
68107;BME280;54892;47.488;19.026;2023-09-12T06:24:09;99851.97;;;21.48;60.36
68107;BME280;54892;47.488;19.026;2023-09-12T06:27:12;99859.78;;;21.53;60.40
68107;BME280;54892;47.488;19.026;2023-09-12T06:30:20;99853.00;;;21.55;61.82
68107;BME280;54892;47.488;19.026;2023-09-12T06:33:22;99853.38;;;21.79;61.14
68107;BME280;54892;47.488;19.026;2023-09-12T06:36:27;99851.38;;;22.00;60.06
68107;BME280;54892;47.488;19.026;2023-09-12T06:39:31;99851.16;;;22.05;59.34
68107;BME280;54892;47.488;19.026;2023-09-12T06:42:34;99856.75;;;22.25;59.18
68107;BME280;54892;47.488;19.026;2023-09-12T06:45:36;99864.56;;;22.30;58.64
68107;BME280;54892;47.488;19.026;2023-09-12T06:48:40;99861.84;;;22.68;58.00
68107;BME280;54892;47.488;19.026;2023-09-12T06:51:44;99848.00;;;22.94;57.79
68107;BME280;54892;47.488;19.026;2023-09-12T06:54:49;99851.31;;;23.32;55.84
68107;BME280;54892;47.488;19.026;2023-09-12T06:57:52;99852.47;;;24.11;54.24
68107;BME280;54892;47.488;19.026;2023-09-12T07:00:55;99865.47;;;25.59;49.08
68107;BME280;54892;47.488;19.026;2023-09-12T07:03:58;99861.31;;;27.07;43.75
68107;BME280;54892;47.488;19.026;2023-09-12T07:07:02;99858.25;;;27.98;42.28
68107;BME280;54892;47.488;19.026;2023-09-12T07:10:06;99863.53;;;29.57;38.38
68107;BME280;54892;47.488;19.026;2023-09-12T07:13:21;99870.19;;;30.99;36.28
68107;BME280;54892;47.488;19.026;2023-09-12T07:16:24;99864.56;;;31.84;34.60
68107;BME280;54892;47.488;19.026;2023-09-12T07:19:27;99869.78;;;32.44;34.25
68107;BME280;54892;47.488;19.026;2023-09-12T07:22:31;99883.66;;;32.92;33.19
68107;BME280;54892;47.488;19.026;2023-09-12T07:25:36;99876.34;;;33.40;32.44
68107;BME280;54892;47.488;19.026;2023-09-12T07:28:40;99881.47;;;33.62;31.70
68107;BME280;54892;47.488;19.026;2023-09-12T07:31:43;99886.47;;;33.87;31.56
68107;BME280;54892;47.488;19.026;2023-09-12T07:34:46;99881.28;;;34.16;31.23
68107;BME280;54892;47.488;19.026;2023-09-12T07:37:51;99884.00;;;33.96;31.32
68107;BME280;54892;47.488;19.026;2023-09-12T07:40:54;99887.69;;;34.50;30.78
68107;BME280;54892;47.488;19.026;2023-09-12T07:43:58;99881.16;;;34.64;30.79
68107;BME280;54892;47.488;19.026;2023-09-12T07:47:03;99884.69;;;34.44;30.28
68107;BME280;54892;47.488;19.026;2023-09-12T07:50:07;99885.97;;;33.96;31.39
68107;BME280;54892;47.488;19.026;2023-09-12T07:53:11;99884.97;;;33.86;31.63
68107;BME280;54892;47.488;19.026;2023-09-12T07:56:14;99882.66;;;33.33;32.32
68107;BME280;54892;47.488;19.026;2023-09-12T07:59:17;99884.13;;;32.14;34.25
68107;BME280;54892;47.488;19.026;2023-09-12T08:02:20;99888.09;;;31.04;35.59
68107;BME280;54892;47.488;19.026;2023-09-12T08:05:24;99879.06;;;30.11;37.95
68107;BME280;54892;47.488;19.026;2023-09-12T08:08:28;99877.91;;;29.43;39.44
68107;BME280;54892;47.488;19.026;2023-09-12T08:11:31;99865.34;;;28.95;40.42
68107;BME280;54892;47.488;19.026;2023-09-12T08:14:34;99867.62;;;28.75;41.41
68107;BME280;54892;47.488;19.026;2023-09-12T08:17:37;99867.88;;;28.48;42.17
68107;BME280;54892;47.488;19.026;2023-09-12T08:20:41;99867.38;;;28.27;42.62
68107;BME280;54892;47.488;19.026;2023-09-12T08:23:46;99871.97;;;28.16;43.17
68107;BME280;54892;47.488;19.026;2023-09-12T08:26:49;99862.47;;;27.92;44.01
68107;BME280;54892;47.488;19.026;2023-09-12T08:29:52;99876.81;;;27.92;43.49
68107;BME280;54892;47.488;19.026;2023-09-12T08:32:54;99868.47;;;27.63;44.80
68107;BME280;54892;47.488;19.026;2023-09-12T08:35:57;99872.72;;;27.64;44.51
68107;BME280;54892;47.488;19.026;2023-09-12T08:39:02;99873.44;;;27.58;44.33
68107;BME280;54892;47.488;19.026;2023-09-12T08:42:06;99875.62;;;27.45;44.93
68107;BME280;54892;47.488;19.026;2023-09-12T08:45:11;99871.53;;;27.62;44.24
68107;BME280;54892;47.488;19.026;2023-09-12T08:48:14;99867.00;;;27.35;45.12
68107;BME280;54892;47.488;19.026;2023-09-12T08:51:18;99868.22;;;27.38;45.34
68107;BME280;54892;47.488;19.026;2023-09-12T08:54:23;99867.84;;;27.40;44.15
68107;BME280;54892;47.488;19.026;2023-09-12T08:57:26;99865.50;;;27.38;44.56
68107;BME280;54892;47.488;19.026;2023-09-12T09:00:29;99860.50;;;27.40;44.44
68107;BME280;54892;47.488;19.026;2023-09-12T09:03:32;99867.97;;;27.50;44.41
68107;BME280;54892;47.488;19.026;2023-09-12T09:06:35;99867.22;;;27.54;44.14
68107;BME280;54892;47.488;19.026;2023-09-12T09:09:42;99870.28;;;27.52;43.74
68107;BME280;54892;47.488;19.026;2023-09-12T09:12:46;99863.81;;;27.64;43.36
68107;BME280;54892;47.488;19.026;2023-09-12T09:15:49;99867.22;;;27.54;44.34
68107;BME280;54892;47.488;19.026;2023-09-12T09:18:52;99863.06;;;27.63;43.67
68107;BME280;54892;47.488;19.026;2023-09-12T09:21:55;99860.28;;;27.60;43.54
68107;BME280;54892;47.488;19.026;2023-09-12T09:25:12;99861.84;;;27.61;43.47
68107;BME280;54892;47.488;19.026;2023-09-12T09:28:16;99857.25;;;27.65;42.54
68107;BME280;54892;47.488;19.026;2023-09-12T09:31:19;99853.41;;;27.73;42.82
68107;BME280;54892;47.488;19.026;2023-09-12T09:34:23;99860.44;;;27.78;42.33
68107;BME280;54892;47.488;19.026;2023-09-12T09:37:26;99861.72;;;27.91;40.34
68107;BME280;54892;47.488;19.026;2023-09-12T09:40:31;99862.03;;;27.83;40.92
68107;BME280;54892;47.488;19.026;2023-09-12T09:43:34;99860.47;;;27.81;41.33
68107;BME280;54892;47.488;19.026;2023-09-12T09:46:37;99857.53;;;28.08;39.88
68107;BME280;54892;47.488;19.026;2023-09-12T09:49:40;99856.34;;;28.02;40.62
68107;BME280;54892;47.488;19.026;2023-09-12T09:52:50;99856.84;;;28.15;40.79
68107;BME280;54892;47.488;19.026;2023-09-12T09:56:09;99852.19;;;28.16;39.75
68107;BME280;54892;47.488;19.026;2023-09-12T09:59:13;99854.53;;;28.21;39.67
68107;BME280;54892;47.488;19.026;2023-09-12T10:02:17;99852.69;;;28.32;38.35
68107;BME280;54892;47.488;19.026;2023-09-12T10:05:23;99850.81;;;28.47;38.78
68107;BME280;54892;47.488;19.026;2023-09-12T10:08:27;99852.34;;;28.45;38.66
68107;BME280;54892;47.488;19.026;2023-09-12T10:11:31;99852.75;;;28.50;38.09
68107;BME280;54892;47.488;19.026;2023-09-12T10:14:35;99845.00;;;28.52;37.67
68107;BME280;54892;47.488;19.026;2023-09-12T10:17:39;99844.66;;;28.65;38.46
68107;BME280;54892;47.488;19.026;2023-09-12T10:20:45;99840.03;;;28.72;37.59
68107;BME280;54892;47.488;19.026;2023-09-12T10:23:51;99836.22;;;28.88;37.26
68107;BME280;54892;47.488;19.026;2023-09-12T10:26:55;99841.28;;;28.82;37.27
68107;BME280;54892;47.488;19.026;2023-09-12T10:29:59;99836.19;;;28.81;37.96
68107;BME280;54892;47.488;19.026;2023-09-12T10:33:06;99836.22;;;28.92;36.59
68107;BME280;54892;47.488;19.026;2023-09-12T10:36:09;99840.13;;;28.98;36.78
68107;BME280;54892;47.488;19.026;2023-09-12T10:39:14;99833.97;;;29.12;36.09
68107;BME280;54892;47.488;19.026;2023-09-12T10:42:19;99832.78;;;29.02;37.48
68107;BME280;54892;47.488;19.026;2023-09-12T10:45:24;99829.66;;;29.04;36.40
68107;BME280;54892;47.488;19.026;2023-09-12T10:48:27;99822.69;;;29.21;35.05
68107;BME280;54892;47.488;19.026;2023-09-12T10:51:30;99822.69;;;29.17;35.68
68107;BME280;54892;47.488;19.026;2023-09-12T10:54:37;99818.84;;;29.25;35.45
68107;BME280;54892;47.488;19.026;2023-09-12T11:04:31;99824.69;;;29.35;35.79
68107;BME280;54892;47.488;19.026;2023-09-12T11:07:43;99825.84;;;29.48;35.02
68107;BME280;54892;47.488;19.026;2023-09-12T11:14:05;99812.66;;;29.50;35.18
68107;BME280;54892;47.488;19.026;2023-09-12T11:17:21;99813.78;;;29.53;34.34
68107;BME280;54892;47.488;19.026;2023-09-12T11:20:26;99806.03;;;29.55;34.66
68107;BME280;54892;47.488;19.026;2023-09-12T11:23:28;99806.03;;;29.66;34.14
68107;BME280;54892;47.488;19.026;2023-09-12T11:26:33;99808.38;;;29.71;34.46
68107;BME280;54892;47.488;19.026;2023-09-12T11:29:36;99791.62;;;29.76;33.90
68107;BME280;54892;47.488;19.026;2023-09-12T11:32:39;99799.81;;;29.69;34.84
68107;BME280;54892;47.488;19.026;2023-09-12T11:35:44;99799.03;;;29.72;34.59
68107;BME280;54892;47.488;19.026;2023-09-12T11:38:49;99787.00;;;29.73;34.41
68107;BME280;54892;47.488;19.026;2023-09-12T11:41:52;99795.91;;;29.77;33.86
68107;BME280;54892;47.488;19.026;2023-09-12T11:44:55;99787.34;;;29.75;34.11
68107;BME280;54892;47.488;19.026;2023-09-12T11:47:59;99783.88;;;29.82;33.87
68107;BME280;54892;47.488;19.026;2023-09-12T11:51:03;99783.84;;;29.89;33.04
68107;BME280;54892;47.488;19.026;2023-09-12T11:54:09;99785.00;;;29.84;33.66
68107;BME280;54892;47.488;19.026;2023-09-12T11:57:13;99780.34;;;29.92;32.99
68107;BME280;54892;47.488;19.026;2023-09-12T12:00:16;99779.94;;;29.90;33.67
68107;BME280;54892;47.488;19.026;2023-09-12T12:03:21;99782.66;;;29.90;32.76
68107;BME280;54892;47.488;19.026;2023-09-12T12:06:26;99775.28;;;29.98;32.27
68107;BME280;54892;47.488;19.026;2023-09-12T12:09:31;99769.81;;;30.08;32.54
68107;BME280;54892;47.488;19.026;2023-09-12T12:12:34;99766.31;;;30.08;32.52
68107;BME280;54892;47.488;19.026;2023-09-12T12:15:37;99771.78;;;30.04;33.25
68107;BME280;54892;47.488;19.026;2023-09-12T12:18:40;99776.41;;;30.11;33.47
68107;BME280;54892;47.488;19.026;2023-09-12T12:21:45;99768.25;;;30.11;32.93
68107;BME280;54892;47.488;19.026;2023-09-12T12:24:49;99769.78;;;30.16;32.37
68107;BME280;54892;47.488;19.026;2023-09-12T12:27:52;99756.91;;;30.31;31.83
68107;BME280;54892;47.488;19.026;2023-09-12T12:30:55;99761.19;;;30.25;32.01
68107;BME280;54892;47.488;19.026;2023-09-12T12:33:58;99755.03;;;30.10;32.55
68107;BME280;54892;47.488;19.026;2023-09-12T12:37:03;99754.56;;;30.33;31.54
68107;BME280;54892;47.488;19.026;2023-09-12T12:40:11;99744.13;;;30.20;32.09
68107;BME280;54892;47.488;19.026;2023-09-12T12:43:17;99743.69;;;30.26;31.49
68107;BME280;54892;47.488;19.026;2023-09-12T12:46:21;99732.47;;;30.16;31.81
68107;BME280;54892;47.488;19.026;2023-09-12T12:49:24;99735.50;;;30.29;31.52
68107;BME280;54892;47.488;19.026;2023-09-12T12:52:28;99731.56;;;30.37;30.66
68107;BME280;54892;47.488;19.026;2023-09-12T12:55:32;99730.44;;;30.35;31.23
68107;BME280;54892;47.488;19.026;2023-09-12T12:58:36;99731.53;;;30.45;31.11
68107;BME280;54892;47.488;19.026;2023-09-12T13:01:40;99732.34;;;30.42;31.27
68107;BME280;54892;47.488;19.026;2023-09-12T13:04:43;99734.63;;;30.47;31.62
68107;BME280;54892;47.488;19.026;2023-09-12T13:07:48;99739.72;;;30.41;31.56
68107;BME280;54892;47.488;19.026;2023-09-12T13:10:51;99731.16;;;30.39;31.44
68107;BME280;54892;47.488;19.026;2023-09-12T13:13:57;99725.72;;;30.39;31.42
68107;BME280;54892;47.488;19.026;2023-09-12T13:17:00;99731.22;;;30.32;31.22
68107;BME280;54892;47.488;19.026;2023-09-12T13:20:05;99730.34;;;30.46;30.77
68107;BME280;54892;47.488;19.026;2023-09-12T13:23:11;99728.81;;;30.41;31.68
68107;BME280;54892;47.488;19.026;2023-09-12T13:26:14;99717.94;;;30.41;31.19
68107;BME280;54892;47.488;19.026;2023-09-12T13:29:16;99727.22;;;30.58;30.11
68107;BME280;54892;47.488;19.026;2023-09-12T13:32:19;99723.31;;;30.52;30.42
68107;BME280;54892;47.488;19.026;2023-09-12T13:35:22;99708.56;;;30.49;30.33
68107;BME280;54892;47.488;19.026;2023-09-12T13:38:27;99712.47;;;30.48;30.64
68107;BME280;54892;47.488;19.026;2023-09-12T13:41:31;99711.28;;;30.49;31.13
68107;BME280;54892;47.488;19.026;2023-09-12T13:44:33;99712.00;;;30.53;31.29
68107;BME280;54892;47.488;19.026;2023-09-12T13:47:37;99713.19;;;30.60;30.89
68107;BME280;54892;47.488;19.026;2023-09-12T13:50:40;99706.97;;;30.56;30.65
68107;BME280;54892;47.488;19.026;2023-09-12T13:53:46;99708.94;;;30.55;30.99
68107;BME280;54892;47.488;19.026;2023-09-12T13:56:49;99711.63;;;30.59;30.37
68107;BME280;54892;47.488;19.026;2023-09-12T13:59:52;99710.47;;;30.60;30.00
68107;BME280;54892;47.488;19.026;2023-09-12T14:02:55;99710.16;;;30.43;31.04
68107;BME280;54892;47.488;19.026;2023-09-12T14:05:59;99710.59;;;30.34;31.36
68107;BME280;54892;47.488;19.026;2023-09-12T14:09:04;99709.38;;;30.43;30.88
68107;BME280;54892;47.488;19.026;2023-09-12T14:12:08;99706.28;;;30.37;31.10
68107;BME280;54892;47.488;19.026;2023-09-12T14:15:19;99704.78;;;30.29;31.45
68107;BME280;54892;47.488;19.026;2023-09-12T14:18:23;99704.31;;;30.41;30.25
68107;BME280;54892;47.488;19.026;2023-09-12T14:21:26;99706.22;;;30.55;30.41
68107;BME280;54892;47.488;19.026;2023-09-12T14:24:32;99711.31;;;30.42;30.18
68107;BME280;54892;47.488;19.026;2023-09-12T14:27:37;99703.19;;;30.38;30.13
68107;BME280;54892;47.488;19.026;2023-09-12T14:30:43;99694.22;;;30.38;29.63
68107;BME280;54892;47.488;19.026;2023-09-12T14:33:48;99702.81;;;30.29;30.29
68107;BME280;54892;47.488;19.026;2023-09-12T14:36:54;99699.31;;;30.36;30.16
68107;BME280;54892;47.488;19.026;2023-09-12T14:40:00;99695.03;;;30.31;30.38
68107;BME280;54892;47.488;19.026;2023-09-12T14:43:05;99697.41;;;30.26;30.65
68107;BME280;54892;47.488;19.026;2023-09-12T14:46:09;99695.09;;;30.24;30.25
68107;BME280;54892;47.488;19.026;2023-09-12T14:49:13;99693.88;;;30.32;30.54
68107;BME280;54892;47.488;19.026;2023-09-12T14:52:17;99695.84;;;30.28;30.39
68107;BME280;54892;47.488;19.026;2023-09-12T14:55:26;99701.69;;;30.27;30.65
68107;BME280;54892;47.488;19.026;2023-09-12T14:58:30;99698.63;;;30.14;31.32
68107;BME280;54892;47.488;19.026;2023-09-12T15:01:36;99698.69;;;30.06;31.31
68107;BME280;54892;47.488;19.026;2023-09-12T15:04:40;99691.31;;;30.00;30.74
68107;BME280;54892;47.488;19.026;2023-09-12T15:07:44;99694.06;;;29.96;31.22
68107;BME280;54892;47.488;19.026;2023-09-12T15:10:49;99694.03;;;29.92;31.41
68107;BME280;54892;47.488;19.026;2023-09-12T15:13:52;99690.94;;;29.94;30.68
68107;BME280;54892;47.488;19.026;2023-09-12T15:16:56;99696.37;;;29.90;30.81
68107;BME280;54892;47.488;19.026;2023-09-12T15:20:01;99698.72;;;29.85;31.35
68107;BME280;54892;47.488;19.026;2023-09-12T15:23:07;99685.47;;;29.90;31.30
68107;BME280;54892;47.488;19.026;2023-09-12T15:26:11;99690.94;;;29.90;31.40
68107;BME280;54892;47.488;19.026;2023-09-12T15:29:15;99700.28;;;29.89;31.19
68107;BME280;54892;47.488;19.026;2023-09-12T15:32:18;99696.34;;;30.08;30.40
68107;BME280;54892;47.488;19.026;2023-09-12T15:35:23;99687.47;;;29.97;30.86
68107;BME280;54892;47.488;19.026;2023-09-12T15:38:27;99694.03;;;29.92;31.40
68107;BME280;54892;47.488;19.026;2023-09-12T15:41:33;99694.03;;;29.92;31.00
68107;BME280;54892;47.488;19.026;2023-09-12T15:44:37;99695.19;;;29.91;31.41
68107;BME280;54892;47.488;19.026;2023-09-12T15:47:51;99689.00;;;29.84;31.69
68107;BME280;54892;47.488;19.026;2023-09-12T15:50:55;99689.44;;;29.75;31.67
68107;BME280;54892;47.488;19.026;2023-09-12T15:54:00;99684.81;;;29.65;32.11
68107;BME280;54892;47.488;19.026;2023-09-12T15:57:05;99680.53;;;29.63;32.09
68107;BME280;54892;47.488;19.026;2023-09-12T16:00:09;99682.50;;;29.56;32.57
68107;BME280;54892;47.488;19.026;2023-09-12T16:03:13;99679.44;;;29.46;33.15
68107;BME280;54892;47.488;19.026;2023-09-12T16:06:17;99685.28;;;29.38;33.58
68107;BME280;54892;47.488;19.026;2023-09-12T16:09:21;99680.19;;;29.32;33.35
68107;BME280;54892;47.488;19.026;2023-09-12T16:12:26;99674.41;;;29.23;32.90
68107;BME280;54892;47.488;19.026;2023-09-12T16:15:32;99672.06;;;29.18;34.39
68107;BME280;54892;47.488;19.026;2023-09-12T16:18:36;99668.59;;;29.03;34.40
68107;BME280;54892;47.488;19.026;2023-09-12T16:21:41;99668.19;;;28.97;34.79